Time;durP1;ratioP1;P1;durP2;ratioP2;P2;SDS_P1;SDS_P2;PMS_P1;PMS_P2;Temp;Humidity;BMP_temperature;BMP_pressure;BME280_temperature;BME280_humidity;BME280_pressure;Samples;Min_cycle;Max_cycle;Signal;HPM_P1;HPM_P2
2023/01/07 00:00:14;;;;;;;94.40;32.35;;;;;;;;;;1045679;28;20075;-75
2023/01/07 00:00:44;;;;;;;75.63;30.70;;;;;;;;;;1046468;28;20104;-75
2023/01/07 00:01:16;;;;;;;77.75;34.15;;;;;;;;;;1046612;28;20029;-75
2023/01/07 00:01:47;;;;;;;79.35;26.00;;;;;;;;;;1046757;28;20020;-75
2023/01/07 00:02:17;;;;;;;77.32;29.58;;;;;;;;;;1046736;28;20415;-75
2023/01/07 00:02:50;;;;;;;72.95;28.35;;;;;;;;;;1045586;28;20032;-75
2023/01/07 00:03:20;;;;;;;92.97;34.53;;;;;;;;;;1046698;28;20021;-75
2023/01/07 00:03:51;;;;;;;82.38;33.55;;;;;;;;;;1046764;28;20021;-75
2023/01/07 00:04:22;;;;;;;77.60;33.22;;;;;;;;;;1046682;28;20032;-76
2023/01/07 00:04:53;;;;;;;77.07;31.60;;;;;;;;;;1046956;28;20478;-76
2023/01/07 00:05:23;;;;;;;84.50;37.20;;;;;;;;;;1044809;28;20131;-75
2023/01/07 00:06:07;;;;;;;73.35;31.33;;;;;;;;;;1046100;28;20021;-75
2023/01/07 00:06:38;;;;;;;100.00;33.70;;;;;;;;;;1045824;28;20029;-75
2023/01/07 00:07:09;;;;;;;86.57;31.95;;;;;;;;;;1045132;28;20028;-75
2023/01/07 00:07:39;;;;;;;77.13;30.02;;;;;;;;;;1045423;28;20024;-75
2023/01/07 00:08:10;;;;;;;65.68;28.30;;;;;;;;;;1046183;28;20127;-76
2023/01/07 00:08:42;;;;;;;63.97;25.38;;;;;;;;;;1046027;28;20326;-75
2023/01/07 00:09:15;;;;;;;60.33;22.63;;;;;;;;;;1045954;28;20079;-75
2023/01/07 00:09:45;;;;;;;55.40;24.13;;;;;;;;;;1046205;28;20052;-75
2023/01/07 00:10:16;;;;;;;88.20;29.50;;;;;;;;;;1046139;28;20024;-75
2023/01/07 00:10:46;;;;;;;65.32;27.92;;;;;;;;;;1046418;28;20549;-75
2023/01/07 00:11:19;;;;;;;55.28;23.83;;;;;;;;;;1046587;28;20391;-75
2023/01/07 00:11:49;;;;;;;67.47;28.50;;;;;;;;;;1046413;28;20021;-75
2023/01/07 00:12:20;;;;;;;61.35;25.25;;;;;;;;;;1046944;28;20025;-75
2023/01/07 00:12:50;;;;;;;68.63;27.48;;;;;;;;;;1046041;28;20460;-76
2023/01/07 00:13:21;;;;;;;70.35;22.92;;;;;;;;;;1046240;28;20533;-75
2023/01/07 00:13:52;;;;;;;51.10;24.40;;;;;;;;;;1044655;28;20396;-75
2023/01/07 00:14:22;;;;;;;64.35;24.17;;;;;;;;;;1045899;28;20017;-75
2023/01/07 00:14:53;;;;;;;56.05;22.25;;;;;;;;;;1045690;28;20037;-76
2023/01/07 00:15:24;;;;;;;60.42;23.38;;;;;;;;;;1046142;28;20024;-76
2023/01/07 00:15:58;;;;;;;51.42;22.08;;;;;;;;;;1046296;28;20040;-76
2023/01/07 00:16:29;;;;;;;61.03;22.88;;;;;;;;;;1046052;28;20020;-76
2023/01/07 00:17:00;;;;;;;68.40;25.60;;;;;;;;;;1045784;28;20388;-76
2023/01/07 00:17:30;;;;;;;55.60;23.88;;;;;;;;;;1046007;28;20119;-76
2023/01/07 00:18:01;;;;;;;58.55;23.48;;;;;;;;;;1046021;28;20087;-75
2023/01/07 00:18:32;;;;;;;51.70;23.67;;;;;;;;;;1045855;28;20025;-76
2023/01/07 00:19:03;;;;;;;59.50;22.30;;;;;;;;;;1046240;28;20012;-75
2023/01/07 00:19:34;;;;;;;64.00;23.83;;;;;;;;;;1046428;28;20025;-75
2023/01/07 00:20:05;;;;;;;59.83;20.90;;;;;;;;;;1045760;28;20033;-76
2023/01/07 00:20:35;;;;;;;49.13;22.83;;;;;;;;;;1046689;28;20028;-76
2023/01/07 00:21:07;;;;;;;61.67;21.30;;;;;;;;;;1046346;28;20391;-76
2023/01/07 00:21:38;;;;;;;46.90;23.67;;;;;;;;;;1045895;28;20025;-75
2023/01/07 00:22:09;;;;;;;62.25;22.00;;;;;;;;;;1045890;28;20020;-75
2023/01/07 00:22:39;;;;;;;61.78;22.50;;;;;;;;;;1046008;28;20032;-76
2023/01/07 00:23:10;;;;;;;57.78;22.88;;;;;;;;;;1045904;28;20111;-75
2023/01/07 00:23:41;;;;;;;56.35;24.02;;;;;;;;;;1045858;28;20519;-76
2023/01/07 00:24:11;;;;;;;54.13;23.23;;;;;;;;;;1047036;28;20527;-75
2023/01/07 00:24:42;;;;;;;52.38;21.17;;;;;;;;;;1045985;28;20008;-75
2023/01/07 00:25:13;;;;;;;58.42;22.52;;;;;;;;;;1045299;28;20419;-76
2023/01/07 00:25:43;;;;;;;53.33;22.35;;;;;;;;;;1046523;28;20389;-75
2023/01/07 00:26:17;;;;;;;52.85;20.65;;;;;;;;;;1046616;28;20024;-75
2023/01/07 00:26:48;;;;;;;57.88;22.27;;;;;;;;;;1046533;28;20020;-76
2023/01/07 00:27:18;;;;;;;48.33;20.92;;;;;;;;;;1046651;28;20024;-76
2023/01/07 00:27:49;;;;;;;51.63;20.52;;;;;;;;;;1045616;28;20021;-76
2023/01/07 00:28:20;;;;;;;43.67;20.35;;;;;;;;;;1046640;28;20013;-75
2023/01/07 00:28:51;;;;;;;62.15;20.48;;;;;;;;;;1046183;28;20027;-75
2023/01/07 00:29:21;;;;;;;57.28;23.98;;;;;;;;;;1045979;28;20566;-76
2023/01/07 00:29:52;;;;;;;47.17;19.83;;;;;;;;;;1045273;28;20023;-75
2023/01/07 00:30:22;;;;;;;54.92;20.40;;;;;;;;;;1042243;28;20094;-76
2023/01/07 00:30:58;;;;;;;59.35;22.45;;;;;;;;;;1042096;28;20067;-76
2023/01/07 00:31:30;;;;;;;55.88;23.02;;;;;;;;;;1042798;28;20021;-76
2023/01/07 00:32:00;;;;;;;66.90;21.77;;;;;;;;;;1042719;28;20032;-76
2023/01/07 00:32:52;;;;;;;50.70;22.50;;;;;;;;;;1045011;28;20020;-75
2023/01/07 00:33:27;;;;;;;46.55;20.60;;;;;;;;;;1046084;28;20415;-75
2023/01/07 00:34:28;;;;;;;47.80;18.42;;;;;;;;;;1046883;28;20525;-75
2023/01/07 00:34:59;;;;;;;50.58;20.77;;;;;;;;;;1046201;28;20484;-75
2023/01/07 00:35:30;;;;;;;55.25;23.60;;;;;;;;;;1043916;28;20021;-75
2023/01/07 00:36:02;;;;;;;64.40;23.30;;;;;;;;;;1045666;28;20132;-75
2023/01/07 00:36:37;;;;;;;57.70;20.25;;;;;;;;;;1045207;28;20026;-76
2023/01/07 00:37:48;;;;;;;52.05;19.95;;;;;;;;;;1044248;28;20384;-76
2023/01/07 00:37:58;;;;;;;49.63;19.92;;;;;;;;;;1046153;28;20021;-76
2023/01/07 00:38:29;;;;;;;43.63;17.05;;;;;;;;;;1046761;28;20051;-76
2023/01/07 00:39:01;;;;;;;39.63;18.38;;;;;;;;;;1045831;28;20388;-75
2023/01/07 00:39:32;;;;;;;48.30;21.58;;;;;;;;;;1046318;28;20024;-75
2023/01/07 00:40:02;;;;;;;39.20;17.80;;;;;;;;;;1045799;28;20044;-75
2023/01/07 00:40:33;;;;;;;52.58;20.10;;;;;;;;;;1046126;28;20052;-76
2023/01/07 00:41:04;;;;;;;56.33;19.90;;;;;;;;;;1045996;28;20021;-76
2023/01/07 00:41:35;;;;;;;39.72;16.90;;;;;;;;;;1046304;28;20119;-75
2023/01/07 00:42:56;;;;;;;56.10;18.67;;;;;;;;;;1046618;28;20468;-75
2023/01/07 00:43:27;;;;;;;52.30;18.92;;;;;;;;;;1046575;28;20025;-75
2023/01/07 00:43:58;;;;;;;55.35;19.52;;;;;;;;;;1046610;28;20387;-76
2023/01/07 00:44:28;;;;;;;39.65;17.38;;;;;;;;;;1045728;28;20032;-76
2023/01/07 00:44:59;;;;;;;38.55;17.70;;;;;;;;;;1045763;28;20131;-76
2023/01/07 00:45:31;;;;;;;53.90;19.75;;;;;;;;;;1046299;28;20024;-76
2023/01/07 00:46:02;;;;;;;41.00;17.63;;;;;;;;;;1046141;28;20036;-76
2023/01/07 00:46:33;;;;;;;63.17;21.27;;;;;;;;;;1045892;28;20491;-76
2023/01/07 00:47:04;;;;;;;48.45;19.67;;;;;;;;;;1046496;28;20157;-75
2023/01/07 00:47:34;;;;;;;52.28;20.83;;;;;;;;;;1046214;28;20055;-75
2023/01/07 00:48:05;;;;;;;53.53;19.95;;;;;;;;;;1046938;28;20025;-75
2023/01/07 00:48:36;;;;;;;49.83;19.33;;;;;;;;;;1046159;28;20024;-75
2023/01/07 00:49:06;;;;;;;52.28;20.67;;;;;;;;;;1046180;28;20097;-75
2023/01/07 00:49:37;;;;;;;44.10;17.90;;;;;;;;;;1046201;28;20115;-75
2023/01/07 00:50:07;;;;;;;42.40;16.60;;;;;;;;;;1046224;28;20127;-75
2023/01/07 00:50:38;;;;;;;69.95;25.27;;;;;;;;;;1047261;28;20027;-75
2023/01/07 00:51:10;;;;;;;48.90;19.70;;;;;;;;;;1046232;28;20081;-75
2023/01/07 00:51:40;;;;;;;53.00;19.90;;;;;;;;;;1045377;28;20058;-75
2023/01/07 00:52:11;;;;;;;54.10;18.75;;;;;;;;;;1045716;28;20090;-76
2023/01/07 00:52:41;;;;;;;47.20;20.33;;;;;;;;;;1046073;28;20613;-76
2023/01/07 00:53:12;;;;;;;54.83;18.10;;;;;;;;;;1045707;28;20044;-76
2023/01/07 00:53:42;;;;;;;57.47;22.60;;;;;;;;;;1046040;28;20052;-75
2023/01/07 00:54:13;;;;;;;43.60;18.33;;;;;;;;;;1045940;28;20024;-76
2023/01/07 00:54:43;;;;;;;47.08;19.73;;;;;;;;;;1045744;28;20032;-75
2023/01/07 00:55:14;;;;;;;44.25;20.42;;;;;;;;;;1045014;28;20025;-75
2023/01/07 00:55:46;;;;;;;39.42;20.02;;;;;;;;;;1045287;28;20030;-75
2023/01/07 00:56:17;;;;;;;48.60;21.05;;;;;;;;;;1046462;28;20016;-76
2023/01/07 00:56:48;;;;;;;38.47;20.83;;;;;;;;;;1045970;28;20111;-76
2023/01/07 00:57:18;;;;;;;51.72;19.90;;;;;;;;;;1046071;28;20393;-75
2023/01/07 00:57:49;;;;;;;47.53;20.20;;;;;;;;;;1045883;28;20029;-75
2023/01/07 00:58:21;;;;;;;49.70;22.55;;;;;;;;;;1046208;28;20411;-75
2023/01/07 00:58:52;;;;;;;47.92;20.70;;;;;;;;;;1046199;28;20177;-75
2023/01/07 00:59:22;;;;;;;53.80;20.25;;;;;;;;;;1044661;28;20077;-75
2023/01/07 00:59:53;;;;;;;55.03;22.40;;;;;;;;;;1045931;28;20066;-75
2023/01/07 01:00:24;;;;;;;43.60;19.77;;;;;;;;;;1045381;28;20092;-76
2023/01/07 01:00:56;;;;;;;45.40;20.63;;;;;;;;;;1044963;28;20024;-75
2023/01/07 01:01:26;;;;;;;54.75;21.63;;;;;;;;;;1046157;28;20020;-75
2023/01/07 01:01:57;;;;;;;51.47;20.42;;;;;;;;;;1046138;28;20017;-75
2023/01/07 01:02:27;;;;;;;50.50;20.52;;;;;;;;;;1046275;28;20024;-75
2023/01/07 01:02:58;;;;;;;50.70;23.85;;;;;;;;;;1043863;28;20021;-75
2023/01/07 01:03:29;;;;;;;69.63;28.25;;;;;;;;;;1044022;28;20025;-76
2023/01/07 01:04:00;;;;;;;64.93;26.55;;;;;;;;;;1041523;28;20014;-76
2023/01/07 01:04:30;;;;;;;98.57;35.50;;;;;;;;;;1041718;28;20032;-76
2023/01/07 01:05:01;;;;;;;88.93;37.03;;;;;;;;;;1044657;28;20016;-75
2023/01/07 01:05:32;;;;;;;94.97;39.85;;;;;;;;;;1045440;28;20483;-75
2023/01/07 01:06:04;;;;;;;103.47;40.13;;;;;;;;;;1049166;28;20012;-75
2023/01/07 01:06:34;;;;;;;88.57;37.25;;;;;;;;;;1048947;28;20024;-75
2023/01/07 01:07:05;;;;;;;95.28;38.92;;;;;;;;;;1046565;28;20029;-75
2023/01/07 01:07:36;;;;;;;97.25;37.03;;;;;;;;;;1046007;28;20488;-76
2023/01/07 01:08:06;;;;;;;107.78;40.10;;;;;;;;;;1047514;28;20035;-76
2023/01/07 01:08:39;;;;;;;90.80;36.17;;;;;;;;;;1045100;28;20020;-76
2023/01/07 01:09:09;;;;;;;133.35;43.80;;;;;;;;;;1045566;28;20036;-76
2023/01/07 01:09:40;;;;;;;119.78;39.47;;;;;;;;;;1045428;28;20119;-75
2023/01/07 01:10:12;;;;;;;88.80;39.67;;;;;;;;;;1045652;28;20036;-75
2023/01/07 01:10:43;;;;;;;109.47;40.25;;;;;;;;;;1045564;28;20020;-76
2023/01/07 01:11:15;;;;;;;101.10;38.60;;;;;;;;;;1045299;28;20020;-75
2023/01/07 01:11:45;;;;;;;107.93;40.25;;;;;;;;;;1046073;28;20126;-75
2023/01/07 01:12:16;;;;;;;106.63;43.22;;;;;;;;;;1045280;28;20484;-75
2023/01/07 01:12:48;;;;;;;95.05;39.67;;;;;;;;;;1045819;28;20469;-75
2023/01/07 01:13:19;;;;;;;102.60;45.90;;;;;;;;;;1045752;28;20083;-75
2023/01/07 01:13:49;;;;;;;105.95;42.60;;;;;;;;;;1044642;28;20025;-75
2023/01/07 01:14:20;;;;;;;110.25;46.22;;;;;;;;;;1046137;28;20028;-75
2023/01/07 01:14:50;;;;;;;112.47;43.92;;;;;;;;;;1045776;28;20029;-75
2023/01/07 01:15:21;;;;;;;109.85;47.80;;;;;;;;;;1041280;28;20082;-75
2023/01/07 01:15:51;;;;;;;102.10;44.05;;;;;;;;;;1041599;28;20436;-75
2023/01/07 01:16:22;;;;;;;113.70;47.17;;;;;;;;;;1045926;28;20029;-75
2023/01/07 01:16:53;;;;;;;121.78;46.65;;;;;;;;;;1046697;28;20032;-75
2023/01/07 01:17:23;;;;;;;121.93;44.30;;;;;;;;;;1045508;28;20451;-75
2023/01/07 01:17:54;;;;;;;109.55;45.10;;;;;;;;;;1046316;28;20119;-75
2023/01/07 01:18:24;;;;;;;104.20;43.45;;;;;;;;;;1045979;28;20059;-75
2023/01/07 01:18:55;;;;;;;106.95;45.25;;;;;;;;;;1047141;28;20103;-75
2023/01/07 01:19:25;;;;;;;111.03;47.03;;;;;;;;;;1052210;28;20240;-75
2023/01/07 01:19:56;;;;;;;105.82;48.03;;;;;;;;;;1052154;28;20077;-75
2023/01/07 01:20:26;;;;;;;114.78;48.65;;;;;;;;;;1052016;28;20126;-75
2023/01/07 01:21:01;;;;;;;126.75;48.92;;;;;;;;;;1047229;28;20021;-75
2023/01/07 01:21:32;;;;;;;120.65;47.78;;;;;;;;;;1046476;28;20017;-75
2023/01/07 01:22:02;;;;;;;120.88;50.20;;;;;;;;;;1045882;28;20016;-75
2023/01/07 01:22:33;;;;;;;127.45;51.30;;;;;;;;;;1045985;28;20054;-75
2023/01/07 01:23:04;;;;;;;105.47;47.10;;;;;;;;;;1046011;28;20457;-75
2023/01/07 01:23:35;;;;;;;113.07;44.72;;;;;;;;;;1046849;28;20071;-76
2023/01/07 01:24:06;;;;;;;116.85;47.28;;;;;;;;;;1045631;28;20020;-75
2023/01/07 01:24:36;;;;;;;109.47;46.45;;;;;;;;;;1045527;28;20021;-75
2023/01/07 01:25:07;;;;;;;113.72;44.50;;;;;;;;;;1045693;28;20607;-75
2023/01/07 01:25:38;;;;;;;98.22;42.38;;;;;;;;;;1046446;28;20025;-75
2023/01/07 01:26:13;;;;;;;113.57;45.65;;;;;;;;;;1045834;28;20023;-75
2023/01/07 01:26:44;;;;;;;111.20;42.83;;;;;;;;;;1046146;28;20024;-76
2023/01/07 01:27:14;;;;;;;123.32;46.47;;;;;;;;;;1044833;28;20051;-75
2023/01/07 01:27:45;;;;;;;106.05;48.42;;;;;;;;;;1044981;28;20021;-75
2023/01/07 01:28:15;;;;;;;115.43;46.33;;;;;;;;;;1046063;28;20027;-75
2023/01/07 01:28:46;;;;;;;94.45;43.63;;;;;;;;;;1045783;28;20032;-75
2023/01/07 01:29:17;;;;;;;93.88;40.20;;;;;;;;;;1045595;28;20020;-75
2023/01/07 01:29:47;;;;;;;107.93;45.13;;;;;;;;;;1045927;28;20029;-75
2023/01/07 01:30:18;;;;;;;88.05;41.85;;;;;;;;;;1046332;28;20035;-75
2023/01/07 01:30:53;;;;;;;110.05;46.97;;;;;;;;;;1046301;28;20060;-76
2023/01/07 01:31:24;;;;;;;115.60;47.42;;;;;;;;;;1045690;28;20067;-76
2023/01/07 01:31:54;;;;;;;107.97;45.35;;;;;;;;;;1045627;28;20543;-75
2023/01/07 01:32:25;;;;;;;105.07;45.47;;;;;;;;;;1045709;28;20023;-75
2023/01/07 01:32:56;;;;;;;107.53;44.60;;;;;;;;;;1045957;28;20025;-76
2023/01/07 01:33:26;;;;;;;102.78;44.65;;;;;;;;;;1045931;28;20052;-75
2023/01/07 01:33:58;;;;;;;95.57;47.40;;;;;;;;;;1045672;28;20017;-75
2023/01/07 01:34:29;;;;;;;110.10;42.13;;;;;;;;;;1046650;28;20094;-75
2023/01/07 01:34:59;;;;;;;82.40;39.35;;;;;;;;;;1046209;28;20150;-75
2023/01/07 01:35:30;;;;;;;104.95;44.42;;;;;;;;;;1044500;28;20104;-75
2023/01/07 01:36:08;;;;;;;117.22;45.88;;;;;;;;;;1043973;28;20021;-75
2023/01/07 01:36:39;;;;;;;97.85;44.55;;;;;;;;;;1046007;28;20020;-75
2023/01/07 01:37:10;;;;;;;98.47;43.95;;;;;;;;;;1046019;28;20078;-75
2023/01/07 01:37:40;;;;;;;103.10;40.80;;;;;;;;;;1046124;28;20107;-76
2023/01/07 01:38:11;;;;;;;112.28;43.83;;;;;;;;;;1046383;28;20021;-75
2023/01/07 01:38:41;;;;;;;113.35;45.45;;;;;;;;;;1046402;28;20415;-75
2023/01/07 01:39:12;;;;;;;107.38;44.80;;;;;;;;;;1046192;28;20380;-75
2023/01/07 01:39:43;;;;;;;109.47;44.83;;;;;;;;;;1046360;28;20119;-75
2023/01/07 01:40:13;;;;;;;102.68;44.83;;;;;;;;;;1046155;28;20384;-75
2023/01/07 01:40:44;;;;;;;96.13;41.97;;;;;;;;;;1046484;28;20020;-75
2023/01/07 01:41:17;;;;;;;88.13;43.03;;;;;;;;;;1045884;28;20027;-75
2023/01/07 01:41:48;;;;;;;102.95;43.10;;;;;;;;;;1045986;28;20035;-75
2023/01/07 01:42:22;;;;;;;101.50;44.15;;;;;;;;;;1045882;28;20540;-75
2023/01/07 01:42:53;;;;;;;105.28;44.65;;;;;;;;;;1045830;28;20115;-75
2023/01/07 01:43:32;;;;;;;100.25;44.90;;;;;;;;;;1046967;28;20043;-76
2023/01/07 01:44:21;;;;;;;95.35;42.83;;;;;;;;;;1046214;28;20460;-75
2023/01/07 01:44:54;;;;;;;83.47;40.13;;;;;;;;;;1045832;28;20043;-75
2023/01/07 01:45:24;;;;;;;110.32;44.40;;;;;;;;;;1045521;28;20547;-76
2023/01/07 01:45:56;;;;;;;109.72;44.95;;;;;;;;;;1045606;28;20021;-76
2023/01/07 01:46:38;;;;;;;103.03;47.30;;;;;;;;;;1045470;28;20120;-76
2023/01/07 01:47:19;;;;;;;113.07;47.22;;;;;;;;;;1046100;28;20070;-76
2023/01/07 01:47:58;;;;;;;121.15;46.60;;;;;;;;;;1046193;28;20020;-76
2023/01/07 01:48:30;;;;;;;111.78;42.22;;;;;;;;;;1045902;28;20024;-76
2023/01/07 01:49:06;;;;;;;93.38;42.60;;;;;;;;;;1045389;28;20021;-75
2023/01/07 01:49:39;;;;;;;112.00;46.83;;;;;;;;;;1045961;28;20034;-76
2023/01/07 01:50:13;;;;;;;112.45;46.78;;;;;;;;;;1041662;28;20076;-76
2023/01/07 01:50:45;;;;;;;110.35;48.13;;;;;;;;;;1043289;28;20025;-76
2023/01/07 01:51:17;;;;;;;101.90;40.40;;;;;;;;;;1046621;28;20017;-76
2023/01/07 01:51:59;;;;;;;109.72;46.35;;;;;;;;;;1042326;28;20496;-75
2023/01/07 01:52:36;;;;;;;100.28;40.50;;;;;;;;;;1045154;28;20384;-75
2023/01/07 01:53:09;;;;;;;91.20;39.78;;;;;;;;;;1044924;28;20222;-75
2023/01/07 01:53:40;;;;;;;94.47;41.40;;;;;;;;;;1046271;28;20024;-75
2023/01/07 01:54:12;;;;;;;103.38;43.15;;;;;;;;;;1044847;28;20492;-75
2023/01/07 01:54:44;;;;;;;94.22;42.22;;;;;;;;;;1044987;28;20071;-75
2023/01/07 01:55:17;;;;;;;101.63;43.15;;;;;;;;;;1045527;28;20029;-75
2023/01/07 01:55:49;;;;;;;95.75;40.78;;;;;;;;;;1046460;28;20017;-75
2023/01/07 01:56:23;;;;;;;110.70;42.45;;;;;;;;;;1045548;28;20027;-75
2023/01/07 01:56:55;;;;;;;100.03;42.63;;;;;;;;;;1045849;28;20052;-75
2023/01/07 01:57:27;;;;;;;107.68;42.25;;;;;;;;;;1045867;28;20029;-76
2023/01/07 01:58:01;;;;;;;96.90;43.47;;;;;;;;;;1046975;28;20065;-75
2023/01/07 01:58:35;;;;;;;98.72;42.05;;;;;;;;;;1046265;28;20043;-76
2023/01/07 01:59:07;;;;;;;104.35;44.53;;;;;;;;;;1045735;28;20407;-76
2023/01/07 01:59:39;;;;;;;99.93;41.65;;;;;;;;;;1044161;28;20532;-76
2023/01/07 02:00:10;;;;;;;90.55;40.75;;;;;;;;;;1044946;28;20031;-75
2023/01/07 02:00:41;;;;;;;92.15;41.92;;;;;;;;;;1044879;28;20111;-75
2023/01/07 02:01:12;;;;;;;96.60;40.90;;;;;;;;;;1045949;28;20035;-76
2023/01/07 02:01:42;;;;;;;97.88;42.13;;;;;;;;;;1046316;28;20047;-75
2023/01/07 02:02:14;;;;;;;89.68;41.83;;;;;;;;;;1045427;28;20501;-76
2023/01/07 02:02:49;;;;;;;109.68;42.30;;;;;;;;;;1045060;28;20021;-76
2023/01/07 02:03:21;;;;;;;83.43;41.15;;;;;;;;;;1045646;28;20381;-75
2023/01/07 02:03:52;;;;;;;101.45;42.60;;;;;;;;;;1045686;28;21236;-75
2023/01/07 02:04:24;;;;;;;81.45;37.25;;;;;;;;;;1045815;28;20020;-75
2023/01/07 02:04:55;;;;;;;103.95;40.60;;;;;;;;;;1045917;28;20028;-76
2023/01/07 02:05:28;;;;;;;94.65;41.42;;;;;;;;;;1047900;28;20514;-76
2023/01/07 02:06:00;;;;;;;89.97;39.55;;;;;;;;;;1048826;28;20073;-76
2023/01/07 02:06:32;;;;;;;93.68;39.80;;;;;;;;;;1050245;28;21909;-75
2023/01/07 02:07:03;;;;;;;100.53;40.63;;;;;;;;;;1049260;28;20015;-76
2023/01/07 02:07:34;;;;;;;97.50;41.05;;;;;;;;;;1046343;28;20107;-76
2023/01/07 02:08:05;;;;;;;104.68;41.28;;;;;;;;;;1045593;28;20012;-75
2023/01/07 02:08:35;;;;;;;100.43;40.78;;;;;;;;;;1045197;28;20484;-76
2023/01/07 02:09:06;;;;;;;83.78;41.80;;;;;;;;;;1045402;28;20112;-76
2023/01/07 02:09:36;;;;;;;101.53;39.97;;;;;;;;;;1045869;28;20063;-76
2023/01/07 02:10:12;;;;;;;95.32;41.63;;;;;;;;;;1044838;28;20542;-76
2023/01/07 02:10:42;;;;;;;110.53;43.30;;;;;;;;;;1046632;28;20016;-75
2023/01/07 02:11:19;;;;;;;89.68;38.72;;;;;;;;;;1045484;28;20479;-75
2023/01/07 02:12:03;;;;;;;87.90;41.15;;;;;;;;;;1046154;28;20031;-75
2023/01/07 02:12:34;;;;;;;97.38;42.80;;;;;;;;;;1045469;28;20441;-75
2023/01/07 02:13:19;;;;;;;82.55;39.20;;;;;;;;;;1046788;28;20023;-75
2023/01/07 02:13:58;;;;;;;89.32;39.35;;;;;;;;;;1044649;28;20017;-76
2023/01/07 02:14:29;;;;;;;87.53;41.88;;;;;;;;;;1045484;28;20016;-76
2023/01/07 02:15:06;;;;;;;120.82;46.60;;;;;;;;;;1045729;28;20013;-76
2023/01/07 02:15:48;;;;;;;119.95;46.58;;;;;;;;;;1045921;28;20020;-76
2023/01/07 02:16:19;;;;;;;92.95;41.45;;;;;;;;;;1046125;28;20021;-75
2023/01/07 02:16:56;;;;;;;116.53;44.95;;;;;;;;;;1045383;28;20033;-75
2023/01/07 02:17:49;;;;;;;108.55;42.60;;;;;;;;;;1048680;28;20119;-75
2023/01/07 02:18:38;;;;;;;112.35;42.78;;;;;;;;;;1041386;28;20604;-75
2023/01/07 02:19:24;;;;;;;124.90;47.25;;;;;;;;;;1045543;28;20071;-76
2023/01/07 02:20:12;;;;;;;116.32;46.30;;;;;;;;;;1045489;28;20021;-76
2023/01/07 02:20:52;;;;;;;116.35;44.97;;;;;;;;;;1046660;28;20024;-75
2023/01/07 02:21:25;;;;;;;105.70;43.03;;;;;;;;;;1046040;28;20035;-75
2023/01/07 02:22:04;;;;;;;122.13;45.95;;;;;;;;;;1046129;28;20060;-75
2023/01/07 02:22:55;;;;;;;121.45;46.42;;;;;;;;;;1045838;28;20021;-75
2023/01/07 02:23:35;;;;;;;117.85;46.42;;;;;;;;;;1034706;28;20037;-75
2023/01/07 02:24:20;;;;;;;108.68;47.40;;;;;;;;;;1041037;28;20030;-75
2023/01/07 02:25:10;;;;;;;107.65;46.15;;;;;;;;;;1044216;28;20025;-76
2023/01/07 02:25:41;;;;;;;100.25;43.42;;;;;;;;;;1045864;28;20379;-75
2023/01/07 02:26:24;;;;;;;101.45;41.17;;;;;;;;;;1045098;28;20028;-75
2023/01/07 02:27:00;;;;;;;88.55;39.88;;;;;;;;;;1045761;28;20078;-75
2023/01/07 02:27:30;;;;;;;98.32;40.63;;;;;;;;;;1045716;28;20059;-76
2023/01/07 02:28:09;;;;;;;107.22;41.28;;;;;;;;;;1045497;28;20373;-76
2023/01/07 02:28:48;;;;;;;98.40;39.53;;;;;;;;;;1046453;28;20020;-76
2023/01/07 02:29:32;;;;;;;86.00;36.88;;;;;;;;;;1045309;28;20293;-75
2023/01/07 02:30:32;;;;;;;92.90;34.78;;;;;;;;;;1046660;28;20440;-76
2023/01/07 02:31:21;;;;;;;105.38;34.92;;;;;;;;;;1034497;28;20049;-75
2023/01/07 02:31:57;;;;;;;121.97;41.60;;;;;;;;;;1046149;28;20392;-75
2023/01/07 02:32:48;;;;;;;99.43;37.90;;;;;;;;;;1046506;28;20033;-75
2023/01/07 02:33:32;;;;;;;103.53;40.97;;;;;;;;;;1031522;28;20038;-75
2023/01/07 02:34:18;;;;;;;110.00;40.00;;;;;;;;;;1041916;28;20082;-75
2023/01/07 02:35:06;;;;;;;98.72;38.97;;;;;;;;;;1045657;28;20357;-75
2023/01/07 02:35:37;;;;;;;95.10;38.63;;;;;;;;;;1046084;28;20024;-75
2023/01/07 02:36:16;;;;;;;93.43;40.05;;;;;;;;;;1047158;28;20013;-75
2023/01/07 02:37:06;;;;;;;105.88;44.42;;;;;;;;;;1046627;28;20537;-75
2023/01/07 02:37:56;;;;;;;121.82;42.85;;;;;;;;;;1046683;28;20391;-75
2023/01/07 02:38:36;;;;;;;94.80;40.22;;;;;;;;;;1037032;28;20466;-75
2023/01/07 02:39:13;;;;;;;95.80;40.53;;;;;;;;;;1046960;28;20025;-75
2023/01/07 02:39:59;;;;;;;80.90;37.72;;;;;;;;;;1046885;28;20036;-75
2023/01/07 02:40:37;;;;;;;83.57;34.42;;;;;;;;;;1046109;28;20393;-76
2023/01/07 02:41:11;;;;;;;102.68;40.47;;;;;;;;;;1045529;28;20020;-75
2023/01/07 02:41:56;;;;;;;105.22;42.60;;;;;;;;;;1046581;28;20531;-76
2023/01/07 02:42:53;;;;;;;71.32;36.00;;;;;;;;;;1046543;28;20020;-76
2023/01/07 02:43:26;;;;;;;83.72;32.15;;;;;;;;;;1043747;28;20075;-75
2023/01/07 02:44:17;;;;;;;84.32;36.22;;;;;;;;;;1046722;28;20004;-75
2023/01/07 02:44:47;;;;;;;78.10;32.50;;;;;;;;;;1039606;28;20536;-75
2023/01/07 02:45:27;;;;;;;95.25;39.63;;;;;;;;;;1045544;28;20032;-75
2023/01/07 02:46:03;;;;;;;104.32;40.38;;;;;;;;;;1046759;28;20575;-75
2023/01/07 02:46:42;;;;;;;96.43;41.00;;;;;;;;;;1046601;28;20050;-75
2023/01/07 02:47:27;;;;;;;91.28;39.58;;;;;;;;;;1046848;28;20024;-76
2023/01/07 02:48:03;;;;;;;93.65;37.25;;;;;;;;;;1045675;28;20108;-76
2023/01/07 02:48:34;;;;;;;98.13;38.10;;;;;;;;;;1046696;28;20037;-75
2023/01/07 02:49:08;;;;;;;98.65;35.72;;;;;;;;;;1046670;28;20502;-75
2023/01/07 02:49:39;;;;;;;97.03;38.13;;;;;;;;;;1046876;28;20012;-75
2023/01/07 02:50:09;;;;;;;90.43;34.60;;;;;;;;;;1046341;28;20024;-75
2023/01/07 02:50:40;;;;;;;82.35;34.60;;;;;;;;;;1046196;28;20147;-75
2023/01/07 02:51:10;;;;;;;89.15;36.58;;;;;;;;;;1047317;28;20107;-75
2023/01/07 02:51:41;;;;;;;88.45;37.53;;;;;;;;;;1045194;28;20025;-75
2023/01/07 02:52:14;;;;;;;104.18;36.38;;;;;;;;;;1046342;28;20037;-75
2023/01/07 02:52:45;;;;;;;96.65;39.03;;;;;;;;;;1046226;28;20107;-75
2023/01/07 02:53:18;;;;;;;88.03;36.03;;;;;;;;;;1046117;28;20073;-76
2023/01/07 02:53:49;;;;;;;90.22;35.75;;;;;;;;;;1047388;28;20024;-75
2023/01/07 02:54:21;;;;;;;103.90;38.47;;;;;;;;;;1046363;28;20019;-75
2023/01/07 02:54:57;;;;;;;85.40;36.83;;;;;;;;;;1046531;28;20031;-75
2023/01/07 02:55:31;;;;;;;82.03;33.88;;;;;;;;;;1046881;28;20541;-75
2023/01/07 02:56:19;;;;;;;85.45;32.90;;;;;;;;;;1047034;28;20024;-75
2023/01/07 02:57:09;;;;;;;75.03;36.67;;;;;;;;;;1046659;28;20421;-75
2023/01/07 02:57:58;;;;;;;81.68;37.67;;;;;;;;;;1036125;28;20505;-75
2023/01/07 02:58:41;;;;;;;79.15;35.03;;;;;;;;;;1046611;28;20031;-75
2023/01/07 02:59:11;;;;;;;89.55;28.63;;;;;;;;;;1047657;28;20366;-75
2023/01/07 02:59:42;;;;;;;80.00;35.40;;;;;;;;;;1046125;28;20016;-75
2023/01/07 03:00:15;;;;;;;82.72;34.38;;;;;;;;;;1046595;28;20047;-75
2023/01/07 03:00:46;;;;;;;78.40;31.70;;;;;;;;;;1045630;28;20116;-76
2023/01/07 03:01:35;;;;;;;82.72;33.10;;;;;;;;;;1046845;28;20025;-75
2023/01/07 03:02:19;;;;;;;78.63;32.08;;;;;;;;;;1046327;28;20533;-76
2023/01/07 03:02:52;;;;;;;91.43;33.92;;;;;;;;;;1046312;28;20048;-75
2023/01/07 03:03:34;;;;;;;95.53;34.92;;;;;;;;;;1047026;28;20399;-75
2023/01/07 03:04:12;;;;;;;89.10;34.50;;;;;;;;;;1046974;28;20013;-75
2023/01/07 03:04:56;;;;;;;89.50;33.35;;;;;;;;;;1046957;28;20516;-76
2023/01/07 03:05:36;;;;;;;79.95;32.00;;;;;;;;;;1046411;28;20021;-76
2023/01/07 03:06:26;;;;;;;87.80;32.65;;;;;;;;;;1046767;28;20396;-75
2023/01/07 03:07:00;;;;;;;97.82;34.28;;;;;;;;;;1045615;28;20033;-75
2023/01/07 03:07:46;;;;;;;90.82;30.33;;;;;;;;;;1046588;28;20028;-75
2023/01/07 03:08:34;;;;;;;81.88;32.40;;;;;;;;;;1046487;28;20558;-75
2023/01/07 03:09:16;;;;;;;72.97;33.35;;;;;;;;;;1046461;28;20486;-76
2023/01/07 03:09:50;;;;;;;78.93;32.53;;;;;;;;;;1046727;28;20094;-75
2023/01/07 03:10:26;;;;;;;105.22;37.78;;;;;;;;;;1046117;28;20021;-75
2023/01/07 03:11:01;;;;;;;98.38;34.53;;;;;;;;;;1046576;28;20037;-75
2023/01/07 03:11:36;;;;;;;84.70;31.90;;;;;;;;;;1046179;28;20020;-76
2023/01/07 03:12:06;;;;;;;82.95;32.83;;;;;;;;;;1046683;28;20028;-76
2023/01/07 03:12:45;;;;;;;89.68;36.13;;;;;;;;;;1046656;28;20016;-75
2023/01/07 03:13:17;;;;;;;78.32;32.30;;;;;;;;;;1045822;28;20028;-76
2023/01/07 03:13:47;;;;;;;94.47;34.67;;;;;;;;;;1045065;28;20039;-76
2023/01/07 03:14:37;;;;;;;91.13;38.10;;;;;;;;;;1046398;28;20032;-75
2023/01/07 03:15:07;;;;;;;87.90;34.70;;;;;;;;;;1046548;28;20024;-76
2023/01/07 03:15:40;;;;;;;93.32;35.22;;;;;;;;;;1046474;28;20040;-76
2023/01/07 03:16:12;;;;;;;90.97;36.78;;;;;;;;;;1047213;28;20025;-75
2023/01/07 03:16:46;;;;;;;96.15;39.38;;;;;;;;;;1048098;28;20472;-76
2023/01/07 03:17:19;;;;;;;95.68;38.60;;;;;;;;;;1047277;28;20028;-76
2023/01/07 03:17:59;;;;;;;96.45;37.33;;;;;;;;;;1046478;28;20013;-75